Time;durP1;ratioP1;P1;durP2;ratioP2;P2;SDS_P1;SDS_P2;PMS_P1;PMS_P2;Temp;Humidity;BMP_temperature;BMP_pressure;BME280_temperature;BME280_humidity;BME280_pressure;Samples;Min_cycle;Max_cycle;Signal;HPM_P1;HPM_P2
2024/03/13 00:01:57;;;;;;;8.90;6.20;;;;;;;7.09;88.09;96768.19;104909;1268;98950;-81
2024/03/13 00:04:34;;;;;;;9.70;6.50;;;;;;;7.06;88.18;96766.11;104988;1264;97940;-81
2024/03/13 00:07:01;;;;;;;8.70;6.10;;;;;;;7.04;88.31;96770.27;104950;1259;98504;-81
2024/03/13 00:09:34;;;;;;;7.10;5.70;;;;;;;7.01;88.26;96769.06;105015;1256;102058;-83
2024/03/13 00:12:02;;;;;;;7.60;5.50;;;;;;;6.99;88.31;96771.18;104929;1276;101355;-82
2024/03/13 00:14:29;;;;;;;9.90;5.80;;;;;;;6.96;88.24;96766.92;104996;1254;100026;-82
2024/03/13 00:16:57;;;;;;;8.20;5.60;;;;;;;6.96;88.29;96769.98;104961;1269;99205;-88
2024/03/13 00:19:25;;;;;;;10.50;6.00;;;;;;;6.97;88.29;96771.27;105028;1260;98454;-86
2024/03/13 00:21:53;;;;;;;10.20;6.50;;;;;;;6.97;88.41;96773.88;105056;1259;102677;-87
2024/03/13 00:24:21;;;;;;;10.80;6.60;;;;;;;6.98;88.32;96772.59;105006;1267;101433;-87
2024/03/13 00:26:50;;;;;;;8.70;6.20;;;;;;;6.96;88.25;96773.20;105016;1260;100058;-83
2024/03/13 00:29:18;;;;;;;9.80;6.20;;;;;;;6.94;88.29;96770.84;105043;1268;97939;-82
2024/03/13 00:31:46;;;;;;;9.60;6.80;;;;;;;6.96;88.18;96772.34;105007;1264;98328;-82
2024/03/13 00:34:13;;;;;;;9.50;6.90;;;;;;;6.97;88.26;96773.38;104981;1260;103776;-82
2024/03/13 00:36:41;;;;;;;10.20;7.00;;;;;;;6.96;88.31;96773.77;104968;1266;109231;-82
2024/03/13 00:39:09;;;;;;;9.30;7.00;;;;;;;6.92;88.32;96773.48;104934;1260;99931;-82
2024/03/13 00:41:38;;;;;;;9.20;6.20;;;;;;;6.90;88.23;96774.16;104982;1258;98011;-82
2024/03/13 00:44:07;;;;;;;9.50;6.80;;;;;;;6.88;88.30;96776.16;105083;1267;98431;-82
2024/03/13 00:46:35;;;;;;;9.70;6.00;;;;;;;6.88;88.27;96776.86;104982;1268;103707;-87
2024/03/13 00:49:03;;;;;;;6.80;5.20;;;;;;;6.88;88.25;96780.61;105011;1260;101494;-87
2024/03/13 00:51:31;;;;;;;7.20;5.30;;;;;;;6.88;88.24;96777.44;104924;1271;99922;-85
2024/03/13 00:54:01;;;;;;;7.50;5.40;;;;;;;6.89;88.33;96778.00;104947;1276;99168;-86
2024/03/13 00:56:29;;;;;;;7.40;5.90;;;;;;;6.88;88.31;96776.11;105037;1258;99295;-86
2024/03/13 00:58:57;;;;;;;6.40;4.80;;;;;;;6.88;88.30;96773.73;104995;1264;102161;-86
2024/03/13 01:01:26;;;;;;;6.90;5.20;;;;;;;6.87;88.23;96771.67;105025;1267;101486;-87
2024/03/13 01:03:57;;;;;;;7.90;4.80;;;;;;;6.85;88.24;96773.64;105013;1260;100175;-87
2024/03/13 01:06:29;;;;;;;7.00;5.10;;;;;;;6.84;88.23;96773.84;104960;1260;97902;-87
2024/03/13 01:08:57;;;;;;;7.70;5.00;;;;;;;6.82;88.22;96773.50;105002;1268;98362;-87
2024/03/13 01:11:25;;;;;;;7.70;4.70;;;;;;;6.81;88.17;96774.36;104977;1260;103498;-86
2024/03/13 01:13:53;;;;;;;5.70;4.40;;;;;;;6.80;88.23;96774.56;104991;1270;101426;-88
2024/03/13 01:16:21;;;;;;;6.10;4.70;;;;;;;6.79;88.24;96774.27;105002;1275;100337;-82
2024/03/13 01:18:49;;;;;;;8.00;4.80;;;;;;;6.78;88.28;96777.28;105011;1259;97961;-82
2024/03/13 01:21:17;;;;;;;7.30;4.50;;;;;;;6.78;88.25;96779.27;104974;1267;98338;-83
2024/03/13 01:23:44;;;;;;;7.10;4.40;;;;;;;6.75;88.24;96783.14;105006;1267;103512;-82
2024/03/13 01:26:12;;;;;;;6.80;4.00;;;;;;;6.70;88.17;96780.94;105021;1258;101568;-82
2024/03/13 01:28:42;;;;;;;6.10;4.20;;;;;;;6.68;88.09;96784.85;104930;1260;99930;-82
2024/03/13 01:31:10;;;;;;;5.70;4.70;;;;;;;6.69;88.30;96784.98;105011;1260;98859;-83
2024/03/13 01:33:39;;;;;;;6.20;4.60;;;;;;;6.69;88.28;96783.49;104994;1260;98437;-82
2024/03/13 01:36:08;;;;;;;8.20;4.90;;;;;;;6.69;88.30;96784.23;105053;1260;103875;-82
2024/03/13 01:38:35;;;;;;;6.90;5.00;;;;;;;6.68;88.32;96785.75;105010;1261;100179;-82
2024/03/13 01:55:24;;;;;;;8.00;4.90;;;;;;;6.66;88.25;96782.89;104599;1265;98985;-87
2024/03/13 02:03:32;;;;;;;5.90;4.50;;;;;;;6.68;88.28;96785.27;104635;1264;102211;-87
2024/03/13 02:06:03;;;;;;;5.80;4.60;;;;;;;6.65;88.37;96785.79;104929;1268;101233;-87
2024/03/13 02:08:32;;;;;;;6.60;4.60;;;;;;;6.61;88.17;96785.99;105009;1268;99983;-87
2024/03/13 02:10:59;;;;;;;5.40;4.60;;;;;;;6.60;88.30;96788.34;104995;1259;99249;-87
2024/03/13 02:13:27;;;;;;;5.20;4.40;;;;;;;6.61;88.44;96791.89;105017;1259;98482;-88
2024/03/13 02:15:55;;;;;;;6.80;4.70;;;;;;;6.62;88.41;96792.73;105025;1259;103548;-88
2024/03/13 02:18:30;;;;;;;6.00;4.20;;;;;;;6.62;88.38;96793.23;104996;1254;101198;-87
2024/03/13 02:20:59;;;;;;;6.70;4.60;;;;;;;6.61;88.48;96789.76;104997;1254;99691;-88
2024/03/13 02:23:28;;;;;;;6.70;5.00;;;;;;;6.59;88.58;96787.89;105036;1264;97839;-88
2024/03/13 02:25:56;;;;;;;5.40;4.60;;;;;;;6.59;88.52;96788.42;104977;1267;98418;-87
2024/03/13 02:28:37;;;;;;;6.30;4.40;;;;;;;6.56;88.56;96787.38;105018;1260;104611;-88
2024/03/13 02:31:06;;;;;;;6.30;4.70;;;;;;;6.55;88.43;96785.92;104980;1267;101909;-88
2024/03/13 02:33:36;;;;;;;6.60;4.30;;;;;;;6.55;88.53;96788.90;104976;1264;98559;-88
2024/03/13 02:36:05;;;;;;;6.70;4.40;;;;;;;6.52;88.46;96789.59;105001;1268;97915;-88
2024/03/13 02:38:33;;;;;;;5.80;4.30;;;;;;;6.45;88.48;96789.31;105063;1254;98459;-89
2024/03/13 02:41:01;;;;;;;4.50;3.50;;;;;;;6.45;88.56;96789.56;104925;1264;104064;-88
2024/03/13 02:43:30;;;;;;;5.30;3.80;;;;;;;6.46;88.57;96795.38;104937;1267;101511;-88
2024/03/13 02:45:58;;;;;;;6.10;4.10;;;;;;;6.45;88.69;96793.48;104971;1254;98385;-83
2024/03/13 02:48:26;;;;;;;5.60;3.80;;;;;;;6.44;88.66;96793.23;105051;1255;98836;-83
2024/03/13 02:50:53;;;;;;;5.90;4.10;;;;;;;6.44;88.68;96792.23;105005;1259;99142;-83
2024/03/13 02:53:21;;;;;;;5.30;3.90;;;;;;;6.40;88.64;96793.42;104952;1259;103700;-82
2024/03/13 02:55:49;;;;;;;5.00;3.70;;;;;;;6.38;88.72;96793.38;104906;1268;101519;-83
2024/03/13 02:58:16;;;;;;;5.40;3.40;;;;;;;6.36;88.64;96793.77;105012;1267;99974;-83
2024/03/13 03:00:44;;;;;;;6.90;4.00;;;;;;;6.36;88.71;96794.27;105053;1260;98116;-85
2024/03/13 03:03:13;;;;;;;5.50;3.70;;;;;;;6.37;88.78;96796.02;105026;1258;98368;-85
2024/03/13 03:05:41;;;;;;;5.50;3.60;;;;;;;6.39;88.83;96793.99;104987;1267;102628;-83
2024/03/13 03:08:08;;;;;;;7.00;3.90;;;;;;;6.39;88.82;96798.05;104937;1266;101791;-82
2024/03/13 03:10:36;;;;;;;6.60;4.50;;;;;;;6.38;88.77;96797.05;104980;1269;99845;-83
2024/03/13 03:13:05;;;;;;;5.30;4.20;;;;;;;6.38;88.75;96798.95;104932;1278;97935;-82
2024/03/13 03:15:34;;;;;;;6.50;4.20;;;;;;;6.37;88.76;96802.48;104737;1262;98628;-87
2024/03/13 03:18:03;;;;;;;4.80;3.80;;;;;;;6.37;88.82;96802.11;104993;1260;103640;-85
2024/03/13 03:20:31;;;;;;;4.90;3.50;;;;;;;6.36;88.84;96801.36;105090;1269;100356;-87
2024/03/13 03:22:59;;;;;;;4.80;3.30;;;;;;;6.36;88.69;96803.59;104918;1258;99012;-86
2024/03/13 03:25:28;;;;;;;3.50;2.80;;;;;;;6.35;88.61;96805.52;104854;1257;98029;-86
2024/03/13 03:27:58;;;;;;;4.10;2.70;;;;;;;6.33;88.71;96806.38;105007;1254;98882;-86
2024/03/13 03:30:30;;;;;;;3.40;2.80;;;;;;;6.29;88.70;96804.74;105053;1254;110423;-86
2024/03/13 03:32:58;;;;;;;5.20;3.30;;;;;;;6.29;88.77;96804.94;105013;1260;100368;-86
2024/03/13 03:35:27;;;;;;;4.40;3.30;;;;;;;6.30;88.71;96808.73;104969;1267;100181;-86
2024/03/13 03:37:55;;;;;;;4.80;3.40;;;;;;;6.30;88.72;96809.24;104962;1260;98610;-86
2024/03/13 03:40:23;;;;;;;6.10;3.40;;;;;;;6.31;88.67;96810.15;104969;1259;98344;-86
2024/03/13 03:42:51;;;;;;;3.90;3.00;;;;;;;6.31;88.65;96812.55;104938;1256;103676;-86
2024/03/13 03:45:19;;;;;;;5.00;2.90;;;;;;;6.27;88.69;96812.26;104925;1261;101910;-86
2024/03/13 03:47:46;;;;;;;4.30;3.20;;;;;;;6.28;88.76;96813.40;104974;1261;99986;-89
2024/03/13 03:50:14;;;;;;;3.10;2.80;;;;;;;6.29;88.88;96812.98;104954;1257;98191;-90
2024/03/13 03:52:42;;;;;;;5.90;3.30;;;;;;;6.30;88.88;96813.02;105054;1260;98530;-90
2024/03/13 03:55:10;;;;;;;5.20;3.20;;;;;;;6.29;88.68;96814.81;105147;1254;102094;-90
2024/03/13 03:57:39;;;;;;;5.10;2.90;;;;;;;6.28;88.68;96815.35;104817;1261;101138;-90
2024/03/13 04:00:10;;;;;;;4.90;3.00;;;;;;;6.25;88.66;96817.48;104866;1270;100207;-89
2024/03/13 04:02:41;;;;;;;3.60;3.00;;;;;;;6.24;88.75;96818.79;104911;1267;98107;-81
2024/03/13 04:05:09;;;;;;;4.10;2.90;;;;;;;6.21;88.69;96817.53;104996;1269;98427;-81
2024/03/13 04:07:37;;;;;;;3.70;2.80;;;;;;;6.16;88.61;96820.90;105067;1258;102661;-81
2024/03/13 04:10:05;;;;;;;5.00;2.80;;;;;;;6.16;88.76;96824.48;105037;1261;101698;-81
2024/03/13 04:12:33;;;;;;;3.60;2.60;;;;;;;6.18;88.85;96826.75;105022;1260;99817;-80
2024/03/13 04:15:04;;;;;;;3.20;2.60;;;;;;;6.18;88.82;96826.91;104984;1254;97931;-81
2024/03/13 04:17:33;;;;;;;3.40;2.70;;;;;;;6.18;88.81;96823.32;104978;1260;98441;-85
2024/03/13 04:20:01;;;;;;;2.90;2.40;;;;;;;6.20;88.76;96822.92;104984;1259;103493;-85
2024/03/13 04:22:31;;;;;;;3.40;2.40;;;;;;;6.20;88.80;96827.38;104937;1268;101349;-85
2024/03/13 04:24:59;;;;;;;4.80;3.10;;;;;;;6.18;88.75;96828.27;104995;1268;99605;-85
2024/03/13 04:27:27;;;;;;;4.40;3.00;;;;;;;6.15;88.78;96830.66;105393;1257;98007;-85
2024/03/13 04:29:55;;;;;;;5.00;3.20;;;;;;;6.12;88.82;96835.27;108547;1254;96017;-85
2024/03/13 04:32:23;;;;;;;4.10;3.20;;;;;;;6.05;88.79;96834.89;108534;1254;103811;-83
2024/03/13 04:34:52;;;;;;;5.40;3.20;;;;;;;6.04;88.85;96835.13;108540;1254;101482;-83
2024/03/13 04:37:23;;;;;;;5.60;2.90;;;;;;;6.06;88.88;96836.56;105951;1257;99550;-82
2024/03/13 04:39:50;;;;;;;4.10;2.70;;;;;;;6.08;88.92;96839.96;105277;1258;97937;-81
2024/03/13 04:42:18;;;;;;;3.60;2.70;;;;;;;6.07;88.94;96844.86;105348;1257;98238;-81
2024/03/13 04:44:48;;;;;;;4.50;3.30;;;;;;;6.06;88.87;96844.77;104912;1270;103613;-82
2024/03/13 04:47:16;;;;;;;3.30;2.90;;;;;;;6.09;88.93;96846.98;104994;1261;108421;-83
2024/03/13 04:49:43;;;;;;;4.00;3.10;;;;;;;6.11;88.92;96845.48;104911;1260;99273;-83
2024/03/13 04:52:11;;;;;;;5.50;3.80;;;;;;;6.09;88.85;96846.98;105123;1259;97911;-82
2024/03/13 04:54:39;;;;;;;4.60;3.30;;;;;;;6.08;88.91;96847.77;105043;1264;98492;-83
2024/03/13 04:57:07;;;;;;;4.00;3.10;;;;;;;6.11;88.93;96849.19;105044;1256;103579;-82
2024/03/13 04:59:37;;;;;;;4.60;3.00;;;;;;;6.13;88.88;96851.64;104960;1268;101365;-82
2024/03/13 05:02:05;;;;;;;4.40;3.80;;;;;;;6.12;88.90;96855.43;104974;1268;99951;-83
2024/03/13 05:04:35;;;;;;;3.60;3.20;;;;;;;6.13;89.02;96854.52;104992;1260;98050;-82
2024/03/13 05:07:02;;;;;;;3.20;2.90;;;;;;;6.13;89.01;96857.83;105001;1267;97848;-83
2024/03/13 05:09:31;;;;;;;6.60;3.50;;;;;;;6.11;88.89;96862.09;105068;1261;104589;-79
2024/03/13 05:11:58;;;;;;;3.80;3.10;;;;;;;6.09;88.95;96861.95;105015;1258;101340;-83
2024/03/13 05:14:26;;;;;;;5.30;3.80;;;;;;;6.07;89.05;96864.32;105013;1261;99710;-82
2024/03/13 05:16:54;;;;;;;4.90;3.30;;;;;;;6.07;89.10;96863.42;104947;1268;98027;-87
2024/03/13 05:19:22;;;;;;;3.70;3.00;;;;;;;6.09;89.05;96863.06;104934;1267;97913;-85
2024/03/13 05:21:51;;;;;;;4.00;3.10;;;;;;;6.09;88.98;96864.42;104977;1258;103174;-86
2024/03/13 05:24:19;;;;;;;3.40;2.70;;;;;;;6.05;88.94;96868.77;105013;1267;101432;-85
2024/03/13 05:26:46;;;;;;;5.70;3.60;;;;;;;5.99;88.86;96868.07;104960;1261;99945;-85
2024/03/13 05:29:14;;;;;;;4.80;4.20;;;;;;;5.97;88.97;96871.77;105028;1261;99279;-84
2024/03/13 05:31:42;;;;;;;6.40;5.70;;;;;;;5.98;89.06;96869.46;105015;1257;98363;-82
2024/03/13 05:34:11;;;;;;;6.60;5.10;;;;;;;5.99;89.11;96869.88;105016;1260;103741;-84
2024/03/13 05:36:39;;;;;;;5.50;4.60;;;;;;;6.01;89.15;96875.88;105007;1254;108949;-90
2024/03/13 05:39:07;;;;;;;6.50;4.60;;;;;;;6.02;89.01;96875.02;104853;1254;107897;-90
2024/03/13 05:41:35;;;;;;;5.50;4.60;;;;;;;6.02;88.97;96878.04;104870;1259;97941;-90
2024/03/13 05:44:03;;;;;;;6.00;4.50;;;;;;;6.01;88.88;96883.05;104875;1254;99610;-89
2024/03/13 05:46:31;;;;;;;6.90;4.50;;;;;;;5.97;88.92;96890.96;104859;1270;103386;-79
2024/03/13 05:48:59;;;;;;;7.60;4.90;;;;;;;5.97;88.91;96893.55;104984;1260;101430;-79
2024/03/13 05:51:27;;;;;;;7.90;5.50;;;;;;;5.96;88.85;96890.55;104956;1268;100039;-80
2024/03/13 05:53:54;;;;;;;11.40;10.20;;;;;;;5.97;88.75;96889.23;104999;1254;97848;-80
2024/03/13 05:56:22;;;;;;;11.40;9.90;;;;;;;5.99;88.84;96888.60;105015;1259;98469;-80
2024/03/13 05:58:50;;;;;;;15.70;14.10;;;;;;;6.01;88.91;96892.09;105011;1259;102770;-80
2024/03/13 06:01:22;;;;;;;12.10;10.90;;;;;;;6.03;88.78;96894.40;104999;1256;101395;-91
2024/03/13 06:03:53;;;;;;;12.40;11.20;;;;;;;6.00;88.72;96895.98;104826;1259;99285;-90
2024/03/13 06:06:22;;;;;;;10.50;9.50;;;;;;;5.97;88.87;96900.12;104785;1277;183237;-89
2024/03/13 06:08:50;;;;;;;13.90;11.60;;;;;;;5.96;88.84;96904.39;104887;1260;98450;-92
2024/03/13 06:11:18;;;;;;;12.00;10.30;;;;;;;5.97;88.84;96904.65;104882;1267;103840;-90
2024/03/13 06:13:46;;;;;;;9.00;6.70;;;;;;;5.96;88.75;96907.41;104838;1269;101395;-80
2024/03/13 06:16:15;;;;;;;6.90;6.00;;;;;;;5.93;88.73;96907.95;104895;1254;99800;-80
2024/03/13 06:18:42;;;;;;;10.80;6.90;;;;;;;5.94;88.86;96911.25;104951;1254;98936;-80
2024/03/13 06:21:10;;;;;;;9.40;7.00;;;;;;;5.93;88.83;96912.73;105010;1261;99134;-81
2024/03/13 06:23:47;;;;;;;13.10;7.20;;;;;;;5.93;88.81;96912.90;104950;1260;103625;-80
2024/03/13 06:26:18;;;;;;;12.10;6.50;;;;;;;5.95;88.94;96909.33;105002;1259;101583;-80
2024/03/13 06:31:39;;;;;;;13.70;6.70;;;;;;;5.95;89.02;96909.29;105016;1260;97910;-91
2024/03/13 06:34:08;;;;;;;9.90;7.00;;;;;;;5.95;89.07;96909.09;104904;1260;99351;-92
2024/03/13 06:36:39;;;;;;;10.40;6.90;;;;;;;5.95;89.02;96916.98;105202;1267;103842;-93
2024/03/13 06:39:09;;;;;;;9.80;6.50;;;;;;;5.92;89.05;96916.64;105254;1254;101275;-92
2024/03/13 06:41:37;;;;;;;9.20;6.80;;;;;;;5.90;89.06;96924.02;105053;1260;98975;-92
2024/03/13 06:44:05;;;;;;;9.00;6.60;;;;;;;5.90;89.04;96925.58;104931;1254;98021;-88
2024/03/13 06:46:34;;;;;;;9.90;7.00;;;;;;;5.90;89.10;96925.00;104781;1260;98632;-79
2024/03/13 06:49:02;;;;;;;9.20;6.40;;;;;;;5.88;89.25;96922.91;105072;1257;103393;-81
2024/03/13 06:51:30;;;;;;;8.50;5.90;;;;;;;5.82;89.22;96926.58;104992;1258;100357;-80
2024/03/13 06:53:57;;;;;;;8.60;5.30;;;;;;;5.82;89.26;96927.69;105206;1260;99917;-81
2024/03/13 06:56:25;;;;;;;8.50;5.30;;;;;;;5.84;89.35;96932.45;105154;1257;98004;-81
2024/03/13 06:58:53;;;;;;;8.30;5.70;;;;;;;5.87;89.39;96932.86;105000;1264;98458;-80
2024/03/13 07:01:20;;;;;;;6.80;5.20;;;;;;;5.89;89.43;96927.83;104933;1260;103227;-81
2024/03/13 07:03:48;;;;;;;5.30;4.00;;;;;;;5.90;89.37;96931.52;105010;1260;102372;-81
2024/03/13 07:06:18;;;;;;;5.90;4.80;;;;;;;5.90;89.39;96933.20;104973;1270;99919;-81
2024/03/13 07:08:45;;;;;;;5.20;4.30;;;;;;;5.89;89.37;96935.86;105013;1257;98018;-81
2024/03/13 07:11:13;;;;;;;5.70;4.10;;;;;;;5.88;89.31;96938.81;105119;1254;98360;-92
2024/03/13 07:13:41;;;;;;;5.10;4.00;;;;;;;5.87;89.40;96943.90;105055;1257;102596;-93
2024/03/13 07:16:09;;;;;;;7.90;4.40;;;;;;;5.86;89.48;96945.79;105056;1261;101502;-90
2024/03/13 07:18:36;;;;;;;7.70;4.90;;;;;;;5.86;89.43;96945.95;104932;1259;99030;-92
2024/03/13 07:21:04;;;;;;;6.10;4.60;;;;;;;5.88;89.46;96947.22;104956;1261;97934;-91
2024/03/13 07:23:32;;;;;;;4.10;3.20;;;;;;;5.90;89.52;96949.98;104864;1266;98846;-91
2024/03/13 07:26:00;;;;;;;4.90;3.80;;;;;;;5.89;89.64;96953.07;104807;1259;103869;-92
2024/03/13 07:28:28;;;;;;;4.50;4.10;;;;;;;5.88;89.57;96955.35;104871;1257;100353;-92
2024/03/13 07:30:57;;;;;;;4.40;3.90;;;;;;;5.89;89.53;96957.42;104929;1257;98298;-81
2024/03/13 07:33:25;;;;;;;4.60;4.10;;;;;;;5.86;89.35;96961.29;104933;1260;97915;-80
2024/03/13 07:35:52;;;;;;;6.70;6.00;;;;;;;5.85;89.33;96960.23;104955;1259;98438;-81
2024/03/13 07:38:20;;;;;;;5.30;4.50;;;;;;;5.88;89.41;96961.25;104968;1259;102637;-81
2024/03/13 07:40:48;;;;;;;5.00;3.50;;;;;;;5.96;89.74;96964.36;104985;1258;101534;-81
2024/03/13 07:43:16;;;;;;;5.50;3.80;;;;;;;6.03;89.91;96962.36;104966;1258;100188;-81
2024/03/13 07:45:43;;;;;;;6.20;3.80;;;;;;;6.06;89.76;96968.73;105023;1260;98506;-91
2024/03/13 07:48:12;;;;;;;4.40;3.50;;;;;;;6.06;89.53;96966.70;104932;1259;99802;-92
2024/03/13 07:50:40;;;;;;;4.90;3.40;;;;;;;6.05;89.26;96966.27;104904;1260;103509;-80
2024/03/13 07:53:08;;;;;;;3.50;3.20;;;;;;;6.06;89.27;96968.31;104921;1260;101381;-81
2024/03/13 07:55:36;;;;;;;4.50;3.30;;;;;;;6.05;89.24;96968.35;104967;1260;99035;-81
2024/03/13 07:58:04;;;;;;;6.20;3.30;;;;;;;6.08;89.25;96966.94;104996;1259;98858;-81
2024/03/13 08:00:35;;;;;;;4.20;3.50;;;;;;;6.11;89.30;96970.80;105083;1269;98850;-94
2024/03/13 08:03:03;;;;;;;4.70;3.40;;;;;;;6.13;89.28;96971.85;106781;1254;102613;-95
2024/03/13 08:05:32;;;;;;;8.50;6.70;;;;;;;6.13;89.16;96975.77;106630;1257;100346;-93
2024/03/13 08:08:00;;;;;;;23.20;18.40;;;;;;;6.13;89.13;96975.20;105902;1257;100078;-86
2024/03/13 08:10:28;;;;;;;29.80;21.50;;;;;;;6.13;89.09;96975.08;104905;1259;97975;-86
2024/03/13 08:12:56;;;;;;;21.00;15.80;;;;;;;6.13;89.15;96974.73;104986;1259;98428;-86
2024/03/13 08:15:24;;;;;;;11.30;9.60;;;;;;;6.13;89.09;96975.78;105089;1261;103848;-86
2024/03/13 08:17:52;;;;;;;9.10;5.90;;;;;;;6.14;89.02;96980.44;104972;1259;98984;-86
2024/03/13 08:20:20;;;;;;;7.40;5.00;;;;;;;6.13;89.05;96981.46;104975;1261;99253;-87
2024/03/13 08:22:48;;;;;;;8.00;4.70;;;;;;;6.16;89.13;96981.73;104963;1257;98047;-86
2024/03/13 08:25:16;;;;;;;5.30;4.10;;;;;;;6.18;89.06;96982.35;105073;1257;98479;-86
2024/03/13 08:27:44;;;;;;;6.80;4.00;;;;;;;6.20;89.00;96983.45;104985;1258;103195;-86
2024/03/13 08:30:18;;;;;;;6.40;4.00;;;;;;;6.22;88.90;96985.77;105052;1256;107788;-86
2024/03/13 08:32:46;;;;;;;6.10;4.40;;;;;;;6.23;88.92;96989.98;104991;1270;100031;-86
2024/03/13 08:35:13;;;;;;;5.20;3.80;;;;;;;6.23;89.00;96991.50;105038;1254;98043;-85
2024/03/13 08:37:42;;;;;;;7.20;4.30;;;;;;;6.24;88.88;96989.98;105040;1258;98399;-85
2024/03/13 08:40:13;;;;;;;5.40;4.00;;;;;;;6.24;88.87;96989.95;104993;1259;103613;-86
2024/03/13 08:42:43;;;;;;;7.30;4.60;;;;;;;6.24;88.77;96993.70;105019;1260;101484;-85
2024/03/13 08:45:13;;;;;;;5.40;4.10;;;;;;;6.24;88.63;96995.39;105038;1259;99736;-86
2024/03/13 08:47:41;;;;;;;6.20;4.60;;;;;;;6.25;88.67;97001.46;104989;1257;98579;-86
2024/03/13 08:50:09;;;;;;;6.00;4.50;;;;;;;6.26;88.68;97002.76;104979;1263;99265;-86
2024/03/13 08:52:37;;;;;;;6.20;4.10;;;;;;;6.28;88.55;97001.98;104926;1256;103627;-85
2024/03/13 08:55:05;;;;;;;5.40;4.40;;;;;;;6.29;88.59;97003.46;105037;1258;101378;-85
2024/03/13 08:57:33;;;;;;;4.80;4.00;;;;;;;6.30;88.54;97004.25;104983;1254;99617;-85
2024/03/13 09:00:01;;;;;;;4.30;3.80;;;;;;;6.31;88.52;97006.94;105009;1259;99152;-86
2024/03/13 09:02:29;;;;;;;6.00;4.30;;;;;;;6.34;88.67;97011.17;104964;1261;97930;-83
2024/03/13 09:04:56;;;;;;;5.50;4.70;;;;;;;6.37;88.68;97012.82;104933;1257;103510;-83
2024/03/13 09:07:26;;;;;;;5.70;5.10;;;;;;;6.39;88.73;97011.68;104991;1277;101820;-81
2024/03/13 09:09:54;;;;;;;5.80;5.00;;;;;;;6.42;88.76;97013.96;104988;1260;99688;-81
2024/03/13 09:12:22;;;;;;;8.40;5.10;;;;;;;6.44;88.67;97013.45;104954;1258;97903;-81
2024/03/13 09:14:49;;;;;;;7.20;5.50;;;;;;;6.47;88.76;97014.34;105015;1254;98341;-81
2024/03/13 09:17:17;;;;;;;6.70;5.30;;;;;;;6.49;88.76;97010.14;105412;1267;103628;-93
2024/03/13 09:19:49;;;;;;;8.30;6.30;;;;;;;6.50;88.74;97017.16;105093;1258;101431;-92
2024/03/13 09:22:18;;;;;;;10.70;7.70;;;;;;;6.49;88.57;97017.45;105668;1254;97951;-92
2024/03/13 09:24:46;;;;;;;9.00;5.60;;;;;;;6.48;88.43;97020.21;105028;1255;99138;-81
2024/03/13 09:27:14;;;;;;;6.80;4.90;;;;;;;6.49;88.37;97023.43;104872;1260;98879;-81
2024/03/13 09:29:41;;;;;;;6.20;5.30;;;;;;;6.49;88.38;97025.86;104925;1257;103564;-80
2024/03/13 09:32:10;;;;;;;6.50;5.20;;;;;;;6.50;88.49;97027.16;104957;1260;101048;-84
2024/03/13 09:34:38;;;;;;;15.10;12.80;;;;;;;6.50;88.44;97032.89;104990;1259;100113;-84
2024/03/13 09:37:07;;;;;;;19.30;17.20;;;;;;;6.51;88.53;97034.75;105064;1258;97922;-85
2024/03/13 09:39:36;;;;;;;13.40;9.40;;;;;;;6.51;88.42;97032.23;105000;1259;98468;-85
2024/03/13 09:42:16;;;;;;;7.60;6.40;;;;;;;6.51;88.42;97032.40;105023;1259;103793;-84
2024/03/13 09:44:46;;;;;;;8.50;5.80;;;;;;;6.53;88.51;97036.40;105146;1258;101392;-91
2024/03/13 09:47:14;;;;;;;8.80;6.40;;;;;;;6.56;88.40;97034.86;105062;1259;99167;-80
2024/03/13 09:49:44;;;;;;;8.30;6.30;;;;;;;6.55;88.35;97036.45;104916;1259;99261;-81
2024/03/13 09:52:12;;;;;;;11.70;6.90;;;;;;;6.53;88.22;97041.84;104986;1260;99396;-80
2024/03/13 09:54:43;;;;;;;8.60;6.00;;;;;;;6.52;88.17;97041.02;105027;1268;103723;-81
2024/03/13 09:57:12;;;;;;;11.00;6.60;;;;;;;6.53;88.29;97043.08;105008;1259;101577;-81
2024/03/13 09:59:41;;;;;;;8.70;5.50;;;;;;;6.54;88.38;97040.40;104991;1254;98990;-81
2024/03/13 10:02:16;;;;;;;7.90;5.20;;;;;;;6.53;88.30;97039.15;104957;1260;97954;-87
2024/03/13 10:04:43;;;;;;;8.50;6.20;;;;;;;6.52;88.26;97039.77;105032;1259;99247;-80
2024/03/13 10:07:19;;;;;;;7.60;6.30;;;;;;;6.54;88.34;97041.06;105002;1260;103588;-81
2024/03/13 10:09:48;;;;;;;8.20;6.40;;;;;;;6.50;88.29;97039.89;104970;1254;101661;-81
2024/03/13 10:12:20;;;;;;;9.60;8.10;;;;;;;6.51;88.38;97042.14;105033;1260;98757;-81
2024/03/13 10:14:50;;;;;;;10.00;6.60;;;;;;;6.54;88.57;97043.27;104964;1257;98060;-81
2024/03/13 10:17:21;;;;;;;9.90;7.00;;;;;;;6.55;88.56;97044.38;105022;1256;98442;-81
2024/03/13 10:19:52;;;;;;;9.90;6.60;;;;;;;6.55;88.37;97041.58;105010;1257;103636;-81
2024/03/13 10:22:21;;;;;;;12.00;7.80;;;;;;;6.54;88.34;97046.02;104980;1259;101549;-81
2024/03/13 10:24:51;;;;;;;14.20;7.50;;;;;;;6.55;88.36;97047.52;104938;1254;99663;-81
2024/03/13 10:27:22;;;;;;;12.50;7.00;;;;;;;6.56;88.31;97047.56;104932;1259;98119;-80
2024/03/13 10:29:52;;;;;;;8.90;6.20;;;;;;;6.55;88.25;97051.36;105008;1259;97940;-80
2024/03/13 10:32:21;;;;;;;10.00;6.60;;;;;;;6.54;88.22;97051.91;105110;1254;103603;-80
2024/03/13 10:34:49;;;;;;;9.00;6.30;;;;;;;6.55;88.18;97053.03;104976;1259;101053;-80
2024/03/13 10:37:19;;;;;;;9.90;6.70;;;;;;;6.55;88.24;97055.39;105022;1260;100170;-81
2024/03/13 10:39:47;;;;;;;10.40;6.90;;;;;;;6.56;88.38;97055.81;105074;1271;98002;-80
2024/03/13 10:42:14;;;;;;;9.10;6.10;;;;;;;6.55;88.20;97060.67;105748;1257;98440;-85
2024/03/13 10:44:43;;;;;;;8.30;6.20;;;;;;;6.53;88.16;97059.34;105471;1258;103569;-85
2024/03/13 10:47:12;;;;;;;10.60;6.30;;;;;;;6.51;88.30;97057.60;105501;1254;101355;-83
2024/03/13 10:49:42;;;;;;;8.90;5.30;;;;;;;6.50;88.32;97059.05;105453;1254;99349;-83
2024/03/13 10:52:12;;;;;;;10.20;6.30;;;;;;;6.50;88.23;97061.97;105195;1256;99112;-83
2024/03/13 10:54:40;;;;;;;8.60;6.30;;;;;;;6.48;88.24;97062.24;105105;1259;99568;-83
2024/03/13 10:57:17;;;;;;;8.50;5.60;;;;;;;6.47;88.15;97060.86;104973;1259;103480;-83
2024/03/13 10:59:49;;;;;;;5.30;4.40;;;;;;;6.46;87.95;97061.23;105040;1254;101531;-83
2024/03/13 11:02:16;;;;;;;9.60;4.30;;;;;;;6.45;87.84;97063.73;105034;1269;98994;-83
2024/03/13 11:04:45;;;;;;;6.70;4.60;;;;;;;6.43;87.69;97062.68;104995;1257;97851;-85
2024/03/13 11:07:13;;;;;;;13.70;9.70;;;;;;;6.43;87.64;97065.61;105029;1259;98351;-85
2024/03/13 11:09:41;;;;;;;14.60;10.70;;;;;;;6.44;87.81;97063.76;104988;1259;102138;-85
2024/03/13 11:12:19;;;;;;;11.90;9.40;;;;;;;6.43;87.98;97060.38;104988;1258;101388;-85
2024/03/13 11:14:50;;;;;;;13.90;9.10;;;;;;;6.41;87.84;97061.10;104995;1268;100070;-84
2024/03/13 11:17:22;;;;;;;12.60;7.70;;;;;;;6.39;87.94;97065.84;104987;1258;97966;-85
2024/03/13 11:20:11;;;;;;;12.10;9.40;;;;;;;6.40;88.22;97069.14;105010;1259;97944;-84
2024/03/13 11:22:46;;;;;;;10.70;8.90;;;;;;;6.44;88.24;97063.64;104996;1254;102603;-83
2024/03/13 11:25:18;;;;;;;10.70;8.90;;;;;;;6.46;88.19;97060.23;104977;1267;101331;-83
2024/03/13 11:27:53;;;;;;;;;;;;;;;6.43;88.24;97062.02;105051;1259;100019;-82
2024/03/13 11:30:21;;;;;;;7.50;6.70;;;;;;;6.42;88.32;97059.79;104997;1259;99129;-84
2024/03/13 11:32:49;;;;;;;9.80;7.00;;;;;;;6.42;88.33;97062.01;105007;1257;98360;-85
2024/03/13 11:35:19;;;;;;;7.80;6.90;;;;;;;6.43;88.39;97063.34;105020;1254;103598;-83
2024/03/13 11:37:49;;;;;;;10.40;7.90;;;;;;;6.44;88.28;97061.23;105104;1270;101523;-85
2024/03/13 11:40:18;;;;;;;9.20;7.20;;;;;;;6.45;88.40;97063.45;104810;1259;106910;-80
2024/03/13 11:42:48;;;;;;;10.50;6.90;;;;;;;6.44;88.30;97057.25;104975;1259;97919;-80
2024/03/13 11:45:18;;;;;;;12.10;6.30;;;;;;;6.46;88.36;97057.11;105011;1257;98421;-81
2024/03/13 11:47:48;;;;;;;8.60;5.70;;;;;;;6.48;88.34;97056.67;107902;1254;103539;-95
2024/03/13 11:50:15;;;;;;;7.50;5.30;;;;;;;6.51;88.31;97056.16;107338;1254;100064;-94
2024/03/13 11:52:56;;;;;;;7.00;6.10;;;;;;;6.53;88.16;97055.91;107509;1254;99937;-96
2024/03/13 11:55:26;;;;;;;7.20;6.20;;;;;;;6.55;88.19;97056.42;106885;1255;97752;-95
2024/03/13 11:58:21;;;;;;;8.80;6.20;;;;;;;6.58;88.14;97058.55;107615;1254;98533;-95
2024/03/13 12:00:50;;;;;;;7.10;6.40;;;;;;;6.59;88.14;97059.48;107231;1258;103584;-86